Time;durP1;ratioP1;P1;durP2;ratioP2;P2;SDS_P1;SDS_P2;PMS_P1;PMS_P2;Temp;Humidity;BMP_temperature;BMP_pressure;BME280_temperature;BME280_humidity;BME280_pressure;Samples;Min_cycle;Max_cycle;Signal;HPM_P1;HPM_P2
2023/10/23 00:01:38;;;;;;;5.55;4.95;;;12.00;88.20;;;;;;5051177;28;20021;-33
2023/10/23 00:04:07;;;;;;;6.93;5.38;;;11.90;88.20;;;;;;5052724;28;20438;-30
2023/10/23 00:06:33;;;;;;;5.90;5.30;;;11.90;88.30;;;;;;5055783;28;20021;-29
2023/10/23 00:08:59;;;;;;;7.03;5.30;;;11.90;88.30;;;;;;5055476;28;20024;-32
2023/10/23 00:11:26;;;;;;;6.15;5.55;;;11.80;88.20;;;;;;5055314;28;20107;-35
2023/10/23 00:13:52;;;;;;;7.32;6.15;;;11.80;88.30;;;;;;5055269;28;20025;-32
2023/10/23 00:16:19;;;;;;;6.72;5.85;;;11.70;88.30;;;;;;5053762;28;20179;-31
2023/10/23 00:18:44;;;;;;;6.57;5.78;;;11.70;88.40;;;;;;5055456;28;20025;-29
2023/10/23 00:21:10;;;;;;;7.53;5.53;;;11.60;88.40;;;;;;5053617;28;20363;-31
2023/10/23 00:23:36;;;;;;;6.93;5.55;;;11.50;88.50;;;;;;5055195;28;20493;-32
2023/10/23 00:26:01;;;;;;;6.80;5.40;;;11.50;88.60;;;;;;5055037;28;20032;-34
2023/10/23 00:28:27;;;;;;;5.80;5.20;;;11.40;88.70;;;;;;5055051;28;20469;-32
2023/10/23 00:30:52;;;;;;;7.13;5.65;;;11.40;88.80;;;;;;5054711;28;20037;-43
2023/10/23 00:33:18;;;;;;;6.60;5.10;;;11.40;88.90;;;;;;5054896;28;20029;-44
2023/10/23 00:35:44;;;;;;;7.18;5.53;;;11.40;88.90;;;;;;5054930;28;20025;-46
2023/10/23 00:38:09;;;;;;;6.75;5.57;;;11.40;88.90;;;;;;5054851;28;20043;-47
2023/10/23 00:40:35;;;;;;;5.60;4.75;;;11.40;88.80;;;;;;5054669;28;20079;-44
2023/10/23 00:43:21;;;;;;;6.28;5.38;;;11.40;88.70;;;;;;5054785;28;20537;-43
2023/10/23 00:45:50;;;;;;;6.47;5.25;;;11.40;88.80;;;;;;5054619;28;20064;-45
2023/10/23 00:48:19;;;;;;;5.97;5.38;;;11.40;88.80;;;;;;5054991;28;20459;-45
2023/10/23 00:50:46;;;;;;;8.00;5.25;;;11.40;88.80;;;;;;5054823;28;20068;-46
2023/10/23 00:53:11;;;;;;;5.47;4.97;;;11.30;88.80;;;;;;5054888;28;20041;-44
2023/10/23 00:55:38;;;;;;;6.47;5.10;;;11.30;88.80;;;;;;5054708;28;20119;-43
2023/10/23 00:58:03;;;;;;;8.02;5.40;;;11.30;88.80;;;;;;5054495;28;20131;-46
2023/10/23 01:00:30;;;;;;;5.72;5.10;;;11.30;88.90;;;;;;5054222;28;20050;-47
2023/10/23 01:02:56;;;;;;;6.53;5.55;;;11.20;88.90;;;;;;5054377;28;20465;-41
2023/10/23 01:05:22;;;;;;;7.18;5.35;;;11.20;88.90;;;;;;5054454;28;20150;-44
2023/10/23 01:07:49;;;;;;;5.93;4.78;;;11.20;88.90;;;;;;5054444;28;20021;-35
2023/10/23 01:10:14;;;;;;;6.45;5.22;;;11.20;89.00;;;;;;5054270;28;20037;-38
2023/10/23 01:12:41;;;;;;;7.30;5.43;;;11.10;89.00;;;;;;5054696;28;20381;-36
2023/10/23 01:15:07;;;;;;;5.10;4.60;;;11.10;89.10;;;;;;5053308;28;20044;-43
2023/10/23 01:17:32;;;;;;;6.00;4.82;;;11.10;89.20;;;;;;5053995;28;20109;-43
2023/10/23 01:19:58;;;;;;;6.20;5.30;;;11.10;89.10;;;;;;5054070;28;20116;-35
2023/10/23 01:22:23;;;;;;;6.13;5.15;;;11.10;89.20;;;;;;5054030;28;20075;-35
2023/10/23 01:24:51;;;;;;;6.35;5.20;;;11.20;89.10;;;;;;5054199;28;20040;-35
2023/10/23 01:27:17;;;;;;;6.50;5.20;;;11.20;88.90;;;;;;5054365;28;20033;-36
2023/10/23 01:29:42;;;;;;;6.90;5.43;;;11.20;88.80;;;;;;5053820;28;20051;-34
2023/10/23 01:32:10;;;;;;;7.13;5.28;;;11.20;88.80;;;;;;5054432;28;20094;-34
2023/10/23 01:34:35;;;;;;;7.00;5.55;;;11.20;88.80;;;;;;5054001;28;20056;-35
2023/10/23 01:37:01;;;;;;;5.43;4.93;;;11.20;88.80;;;;;;5053832;28;20028;-35
2023/10/23 01:39:26;;;;;;;6.20;5.47;;;11.30;88.80;;;;;;5053793;28;20265;-35
2023/10/23 01:41:52;;;;;;;6.05;5.07;;;11.30;88.70;;;;;;5052618;28;20025;-34
2023/10/23 01:44:18;;;;;;;6.60;4.85;;;11.30;88.80;;;;;;5053687;28;20029;-36
2023/10/23 01:46:43;;;;;;;5.93;4.93;;;11.30;88.70;;;;;;5053747;28;20395;-42
2023/10/23 01:49:09;;;;;;;10.23;5.70;;;11.30;88.80;;;;;;5053996;28;20049;-37
2023/10/23 01:51:34;;;;;;;7.90;5.20;;;11.30;88.80;;;;;;5053503;28;20123;-36
2023/10/23 01:54:00;;;;;;;6.35;5.32;;;11.40;88.70;;;;;;5053532;28;20062;-35
2023/10/23 01:56:26;;;;;;;5.50;5.00;;;11.50;88.70;;;;;;5053939;28;20110;-36
2023/10/23 01:58:52;;;;;;;6.15;4.93;;;11.50;88.60;;;;;;5052288;28;20025;-36
2023/10/23 02:01:24;;;;;;;7.43;5.05;;;11.60;88.60;;;;;;5053869;28;20079;-36
2023/10/23 02:03:50;;;;;;;7.20;4.93;;;11.60;88.50;;;;;;5052256;28;20027;-35
2023/10/23 02:06:16;;;;;;;5.78;4.68;;;11.70;88.50;;;;;;5053482;28;20021;-36
2023/10/23 02:08:41;;;;;;;6.93;5.05;;;11.70;89.00;;;;;;5053563;28;20115;-34
2023/10/23 02:11:08;;;;;;;5.88;4.95;;;11.70;88.40;;;;;;5053070;28;20033;-36
2023/10/23 02:13:34;;;;;;;6.03;4.95;;;11.70;88.40;;;;;;5053109;28;20059;-36
2023/10/23 02:16:00;;;;;;;6.35;5.35;;;11.80;88.40;;;;;;5052980;28;20037;-35
2023/10/23 02:18:26;;;;;;;7.03;5.05;;;11.80;88.40;;;;;;5053126;28;20048;-36
2023/10/23 02:20:51;;;;;;;5.75;4.82;;;11.80;88.80;;;;;;5052816;28;20040;-36
2023/10/23 02:23:17;;;;;;;5.53;4.72;;;11.90;88.50;;;;;;5053265;28;20508;-35
2023/10/23 02:25:42;;;;;;;6.20;5.30;;;11.90;88.40;;;;;;5053011;28;20039;-36
2023/10/23 02:28:08;;;;;;;5.93;5.32;;;11.90;88.40;;;;;;5052867;28;20037;-36
2023/10/23 02:30:36;;;;;;;7.55;5.65;;;11.90;88.40;;;;;;5052519;28;20096;-36
2023/10/23 02:33:01;;;;;;;6.93;5.20;;;11.90;88.40;;;;;;5053131;28;20535;-36
2023/10/23 02:35:27;;;;;;;6.43;5.38;;;11.90;88.40;;;;;;5052796;28;20055;-36
2023/10/23 02:37:52;;;;;;;9.25;5.47;;;12.00;88.40;;;;;;5053042;28;20024;-35
2023/10/23 02:40:18;;;;;;;6.45;5.32;;;12.00;88.50;;;;;;5052525;28;20428;-35
2023/10/23 02:42:43;;;;;;;6.25;5.53;;;12.00;88.40;;;;;;5051293;28;20428;-35
2023/10/23 02:45:09;;;;;;;7.10;6.10;;;12.00;89.00;;;;;;5052691;28;20025;-36
2023/10/23 02:47:36;;;;;;;6.65;5.95;;;12.00;88.50;;;;;;5052390;28;20041;-37
2023/10/23 02:50:03;;;;;;;6.70;5.97;;;12.00;88.40;;;;;;5052684;28;20052;-37
2023/10/23 02:52:28;;;;;;;7.80;5.90;;;12.00;88.50;;;;;;5052951;28;20460;-31
2023/10/23 02:54:54;;;;;;;7.35;5.78;;;12.00;88.60;;;;;;5052654;28;20052;-29
2023/10/23 02:57:20;;;;;;;8.10;5.85;;;12.00;88.60;;;;;;5052587;28;20044;-29
2023/10/23 02:59:48;;;;;;;8.45;5.70;;;12.00;88.70;;;;;;5052330;28;20029;-30
2023/10/23 03:02:15;;;;;;;7.65;6.35;;;11.90;89.30;;;;;;5052144;28;20033;-30
2023/10/23 03:04:41;;;;;;;7.15;6.30;;;11.90;88.80;;;;;;5052442;28;20029;-35
2023/10/23 03:07:06;;;;;;;6.30;5.53;;;11.90;88.90;;;;;;5052482;28;20025;-33
2023/10/23 03:09:32;;;;;;;7.88;6.47;;;12.00;88.90;;;;;;5052340;28;20392;-31
2023/10/23 03:11:57;;;;;;;7.60;6.25;;;11.90;88.90;;;;;;5052045;28;20029;-28
2023/10/23 03:14:23;;;;;;;8.48;6.15;;;11.90;88.90;;;;;;5052353;28;20087;-30
2023/10/23 03:16:48;;;;;;;6.90;6.18;;;11.90;89.00;;;;;;5052284;28;20361;-29
2023/10/23 03:19:14;;;;;;;8.18;6.93;;;11.90;89.00;;;;;;5051754;28;20033;-31
2023/10/23 03:21:40;;;;;;;8.70;5.80;;;11.90;89.00;;;;;;5051552;28;20143;-29
2023/10/23 03:24:06;;;;;;;8.70;6.65;;;11.90;89.00;;;;;;5052254;28;20036;-28
2023/10/23 03:26:31;;;;;;;8.05;6.70;;;12.00;89.10;;;;;;5050435;28;20025;-30
2023/10/23 03:28:57;;;;;;;7.45;6.53;;;11.90;89.10;;;;;;5051898;28;20569;-29
2023/10/23 03:31:22;;;;;;;9.00;7.05;;;12.00;89.10;;;;;;5051804;28;20068;-32
2023/10/23 03:33:48;;;;;;;10.02;6.72;;;11.90;89.10;;;;;;5051807;28;20025;-41
2023/10/23 03:36:14;;;;;;;9.15;6.82;;;11.90;89.10;;;;;;5051677;28;20057;-29
2023/10/23 03:38:39;;;;;;;8.55;6.95;;;12.00;89.20;;;;;;5050985;28;20037;-32
2023/10/23 03:41:05;;;;;;;8.05;6.15;;;11.90;89.20;;;;;;5051452;28;20485;-29
2023/10/23 03:43:30;;;;;;;7.90;5.90;;;11.90;89.20;;;;;;5051589;28;20029;-30
2023/10/23 03:46:00;;;;;;;7.78;6.43;;;11.90;89.20;;;;;;5051440;28;20036;-29
2023/10/23 03:48:26;;;;;;;7.60;6.40;;;12.00;89.20;;;;;;5051488;28;20029;-29
2023/10/23 03:50:51;;;;;;;7.75;6.22;;;12.00;89.20;;;;;;5051255;28;20029;-32
2023/10/23 03:53:17;;;;;;;8.10;6.22;;;12.00;89.20;;;;;;5051512;28;20033;-33
2023/10/23 03:55:42;;;;;;;7.35;6.45;;;12.00;89.20;;;;;;5051193;28;20021;-33
2023/10/23 03:58:08;;;;;;;7.43;6.13;;;12.00;89.20;;;;;;5051638;28;20024;-30
2023/10/23 04:00:34;;;;;;;8.93;6.40;;;12.10;89.20;;;;;;5051111;28;20100;-28
2023/10/23 04:02:59;;;;;;;9.68;5.70;;;12.10;89.10;;;;;;5050238;28;20032;-27
2023/10/23 04:05:25;;;;;;;9.38;6.82;;;12.10;89.10;;;;;;5051314;28;20025;-32
2023/10/23 04:07:50;;;;;;;7.93;6.20;;;12.10;89.10;;;;;;5051671;28;20345;-26
2023/10/23 04:10:16;;;;;;;8.60;6.65;;;12.10;89.10;;;;;;5051476;28;20021;-30
2023/10/23 04:12:42;;;;;;;8.38;6.75;;;12.10;89.10;;;;;;5051540;28;20087;-41
2023/10/23 04:15:07;;;;;;;9.10;6.38;;;12.10;89.10;;;;;;5049990;28;20465;-30
2023/10/23 04:17:33;;;;;;;9.40;6.43;;;12.10;89.10;;;;;;5051145;28;20378;-28
2023/10/23 04:19:58;;;;;;;9.48;6.40;;;12.10;89.10;;;;;;5050930;28;20032;-28
2023/10/23 04:22:25;;;;;;;10.95;7.05;;;12.10;89.20;;;;;;5050538;28;20056;-29
2023/10/23 04:24:53;;;;;;;18.88;6.60;;;12.10;89.80;;;;;;5051556;28;20154;-30
2023/10/23 04:27:20;;;;;;;11.80;6.60;;;12.10;89.20;;;;;;5051503;28;20559;-38
2023/10/23 04:29:45;;;;;;;9.50;6.40;;;12.10;89.20;;;;;;5051092;28;20033;-29
2023/10/23 04:32:11;;;;;;;9.13;6.68;;;12.10;89.20;;;;;;5051383;28;20048;-29
2023/10/23 04:34:36;;;;;;;8.82;6.30;;;12.20;89.30;;;;;;5051185;28;20033;-28
2023/10/23 04:37:03;;;;;;;9.88;6.47;;;12.20;89.30;;;;;;5051075;28;20036;-31
2023/10/23 04:39:28;;;;;;;15.18;7.03;;;12.10;89.30;;;;;;5050996;28;20029;-28
2023/10/23 04:41:54;;;;;;;9.48;6.40;;;12.10;89.30;;;;;;5050864;28;20036;-30
2023/10/23 04:44:19;;;;;;;9.70;6.70;;;12.10;89.40;;;;;;5051086;28;20116;-28
2023/10/23 04:46:46;;;;;;;10.27;6.43;;;12.10;89.40;;;;;;5050874;28;20508;-27
2023/10/23 04:49:11;;;;;;;9.07;6.50;;;12.10;89.40;;;;;;5051165;28;20025;-30
2023/10/23 04:51:37;;;;;;;13.93;6.70;;;12.10;89.40;;;;;;5054537;28;20025;-29
2023/10/23 04:54:03;;;;;;;7.60;6.10;;;12.10;89.30;;;;;;5054863;28;20029;-27
2023/10/23 04:56:29;;;;;;;11.00;6.25;;;12.10;89.40;;;;;;5054929;28;20108;-28
2023/10/23 04:58:56;;;;;;;9.77;5.93;;;12.10;89.50;;;;;;5054946;28;20074;-29
2023/10/23 05:01:22;;;;;;;9.95;6.05;;;12.10;89.50;;;;;;5054211;28;20056;-28
2023/10/23 05:03:48;;;;;;;9.57;6.05;;;12.10;89.50;;;;;;5054748;28;20044;-28
2023/10/23 05:06:13;;;;;;;9.73;6.40;;;12.10;89.50;;;;;;5054298;28;20029;-26
2023/10/23 05:08:39;;;;;;;10.43;6.13;;;12.10;89.50;;;;;;5054671;28;20100;-34
2023/10/23 05:11:07;;;;;;;10.95;5.75;;;12.10;89.50;;;;;;5054083;28;20446;-28
2023/10/23 05:13:33;;;;;;;8.85;6.40;;;12.10;89.50;;;;;;5054291;28;20120;-28
2023/10/23 05:16:06;;;;;;;8.25;6.15;;;12.10;89.60;;;;;;5054272;28;20056;-31
2023/10/23 05:18:32;;;;;;;9.23;6.30;;;12.10;89.60;;;;;;5054459;28;20024;-28
2023/10/23 05:21:04;;;;;;;12.10;6.22;;;12.10;89.60;;;;;;5054246;28;20400;-29
2023/10/23 05:23:31;;;;;;;9.70;5.95;;;12.10;89.60;;;;;;5053983;28;20119;-29
2023/10/23 05:25:56;;;;;;;9.82;6.53;;;12.10;89.60;;;;;;5054273;28;20108;-27
2023/10/23 05:28:22;;;;;;;8.60;5.93;;;12.10;89.70;;;;;;5054229;28;20060;-28
2023/10/23 05:30:50;;;;;;;8.63;5.72;;;12.10;89.70;;;;;;5053679;28;20045;-28
2023/10/23 05:33:15;;;;;;;7.55;6.13;;;12.10;89.70;;;;;;5054138;28;20079;-27
2023/10/23 05:35:41;;;;;;;7.13;5.45;;;12.10;89.70;;;;;;5054011;28;20461;-33
2023/10/23 05:38:07;;;;;;;9.38;5.82;;;12.10;89.70;;;;;;5053716;28;20037;-26
2023/10/23 05:40:32;;;;;;;8.73;6.18;;;12.10;89.80;;;;;;5053445;28;20033;-28
2023/10/23 05:42:58;;;;;;;7.28;5.70;;;12.10;89.80;;;;;;5054077;28;20064;-28
2023/10/23 05:45:23;;;;;;;7.43;5.90;;;12.10;89.80;;;;;;5053899;28;20102;-29
2023/10/23 05:47:49;;;;;;;9.75;5.78;;;12.10;89.80;;;;;;5053800;28;20039;-27
2023/10/23 05:50:14;;;;;;;10.40;6.22;;;12.10;89.80;;;;;;5053293;28;20052;-28
2023/10/23 05:52:40;;;;;;;7.63;5.85;;;12.10;89.80;;;;;;5053526;28;20481;-34
2023/10/23 05:55:08;;;;;;;12.65;6.70;;;12.10;89.80;;;;;;5053740;28;20033;-28
2023/10/23 05:57:34;;;;;;;12.20;6.20;;;12.10;89.90;;;;;;5053408;28;20036;-30
2023/10/23 05:59:59;;;;;;;14.10;6.45;;;12.10;89.90;;;;;;5053272;28;20091;-30
2023/10/23 06:02:26;;;;;;;11.90;6.05;;;12.10;90.00;;;;;;5052760;28;20033;-27
2023/10/23 06:04:51;;;;;;;12.45;6.00;;;12.10;89.90;;;;;;5053617;28;20025;-31
2023/10/23 06:07:17;;;;;;;13.70;6.45;;;12.10;90.00;;;;;;5053112;28;20032;-31
2023/10/23 06:09:42;;;;;;;10.52;6.43;;;12.10;90.00;;;;;;5053201;28;20036;-28
2023/10/23 06:12:09;;;;;;;15.43;7.15;;;12.10;90.00;;;;;;5053539;28;20053;-27
2023/10/23 06:14:35;;;;;;;15.23;7.32;;;12.10;90.00;;;;;;5053527;28;20025;-28
2023/10/23 06:17:01;;;;;;;12.88;7.22;;;12.10;90.00;;;;;;5053054;28;20082;-28
2023/10/23 06:19:26;;;;;;;16.60;6.93;;;12.10;90.00;;;;;;5052890;28;20151;-29
2023/10/23 06:21:52;;;;;;;10.38;6.53;;;12.10;90.00;;;;;;5052879;28;20025;-33
2023/10/23 06:24:18;;;;;;;33.63;7.28;;;12.10;90.00;;;;;;5053233;28;20127;-29
2023/10/23 06:26:43;;;;;;;20.00;6.78;;;12.10;90.00;;;;;;5053072;28;20029;-28
2023/10/23 06:29:09;;;;;;;26.00;7.72;;;12.10;90.00;;;;;;5052573;28;20099;-28
2023/10/23 06:31:34;;;;;;;29.45;7.22;;;12.10;90.00;;;;;;5052661;28;20039;-29
2023/10/23 06:34:00;;;;;;;9.75;7.05;;;12.10;90.00;;;;;;5052794;28;20044;-28
2023/10/23 06:36:25;;;;;;;28.10;7.72;;;12.10;90.00;;;;;;5052764;28;20120;-28
2023/10/23 06:38:51;;;;;;;25.13;6.95;;;12.10;90.00;;;;;;5052537;28;20640;-28
2023/10/23 06:41:16;;;;;;;46.38;7.35;;;12.00;90.00;;;;;;5052562;28;20545;-28
2023/10/23 06:43:42;;;;;;;26.27;6.93;;;12.10;90.10;;;;;;5052524;28;20013;-29
2023/10/23 06:46:08;;;;;;;30.08;7.05;;;12.00;90.00;;;;;;5052615;28;20481;-28
2023/10/23 06:48:33;;;;;;;38.72;7.45;;;12.10;90.00;;;;;;5052547;28;20100;-31
2023/10/23 06:50:59;;;;;;;38.17;7.45;;;12.10;90.00;;;;;;5050910;28;20047;-27
2023/10/23 06:53:25;;;;;;;39.88;7.13;;;12.10;90.00;;;;;;5052351;28;20112;-29
2023/10/23 06:55:52;;;;;;;17.35;6.68;;;12.00;90.10;;;;;;5052432;28;20412;-37
2023/10/23 06:58:21;;;;;;;82.38;7.70;;;12.00;90.10;;;;;;5052236;28;20510;-29
2023/10/23 07:00:47;;;;;;;26.25;7.45;;;12.10;90.10;;;;;;5051943;28;20037;-29
2023/10/23 07:03:13;;;;;;;80.85;8.43;;;12.10;90.10;;;;;;5050825;28;20029;-32
2023/10/23 07:05:42;;;;;;;46.20;7.65;;;12.10;90.10;;;;;;5052516;28;20028;-28
2023/10/23 07:08:08;;;;;;;32.33;7.13;;;12.00;90.00;;;;;;5051984;28;20021;-28
2023/10/23 07:10:34;;;;;;;11.20;7.05;;;12.00;90.00;;;;;;5052228;28;20032;-27
2023/10/23 07:13:00;;;;;;;23.55;6.68;;;12.00;90.10;;;;;;5051799;28;20033;-29
2023/10/23 07:15:26;;;;;;;34.65;7.63;;;12.10;90.10;;;;;;5051753;28;20114;-27
2023/10/23 07:17:52;;;;;;;11.82;6.95;;;12.00;90.10;;;;;;5051953;28;20060;-39
2023/10/23 07:20:17;;;;;;;25.40;7.22;;;12.00;90.10;;;;;;5051604;28;20436;-27
2023/10/23 07:22:43;;;;;;;34.53;7.28;;;12.10;90.10;;;;;;5051758;28;20029;-28
2023/10/23 07:25:10;;;;;;;28.08;6.95;;;12.10;90.10;;;;;;5051682;28;20052;-27
2023/10/23 07:27:36;;;;;;;39.35;7.03;;;12.10;90.10;;;;;;5051979;28;20099;-27
2023/10/23 07:30:04;;;;;;;43.58;7.57;;;12.10;90.10;;;;;;5051930;28;20069;-27
2023/10/23 07:32:29;;;;;;;23.20;6.65;;;12.10;90.10;;;;;;5051521;28;20040;-27
2023/10/23 07:34:55;;;;;;;14.80;6.28;;;12.10;90.10;;;;;;5051629;28;20444;-27
2023/10/23 07:37:21;;;;;;;22.75;6.18;;;12.10;90.10;;;;;;5051674;28;20025;-28
2023/10/23 07:39:47;;;;;;;46.55;7.03;;;12.10;90.10;;;;;;5051263;28;20037;-26
2023/10/23 07:42:14;;;;;;;31.10;7.05;;;12.10;90.10;;;;;;5051771;28;20075;-28
2023/10/23 07:44:40;;;;;;;15.02;6.43;;;12.10;90.10;;;;;;5052017;28;20112;-31
2023/10/23 07:47:05;;;;;;;14.35;6.07;;;12.20;90.10;;;;;;5051370;28;20410;-30
2023/10/23 07:49:31;;;;;;;22.00;6.55;;;12.20;90.00;;;;;;5051558;28;20029;-30
2023/10/23 07:51:56;;;;;;;8.80;6.07;;;12.30;90.00;;;;;;5051395;28;20100;-27
2023/10/23 07:54:22;;;;;;;20.92;6.32;;;12.30;90.00;;;;;;5051452;28;20086;-28
2023/10/23 07:56:47;;;;;;;13.82;6.38;;;12.30;90.00;;;;;;5051819;28;20032;-28
2023/10/23 07:59:13;;;;;;;32.78;6.80;;;12.30;90.00;;;;;;5050070;28;20029;-27
2023/10/23 08:01:39;;;;;;;45.75;6.70;;;12.30;90.00;;;;;;5051306;28;20017;-28
2023/10/23 08:04:04;;;;;;;50.60;6.75;;;12.30;89.90;;;;;;5051677;28;20022;-30
2023/10/23 08:06:30;;;;;;;28.65;6.85;;;12.30;89.80;;;;;;5051615;28;20021;-29
2023/10/23 08:08:56;;;;;;;12.60;7.07;;;12.30;89.80;;;;;;5051636;28;20017;-29
2023/10/23 08:11:22;;;;;;;32.67;7.82;;;12.30;89.70;;;;;;5051207;28;20091;-29
2023/10/23 08:13:47;;;;;;;14.55;6.93;;;12.30;89.70;;;;;;5051258;28;20388;-28
2023/10/23 08:16:13;;;;;;;13.70;7.85;;;12.30;89.80;;;;;;5051402;28;20108;-33
2023/10/23 08:18:40;;;;;;;24.52;7.72;;;12.30;89.80;;;;;;5051348;28;20057;-31
2023/10/23 08:21:14;;;;;;;20.50;7.78;;;12.40;89.80;;;;;;5051029;28;20060;-28
2023/10/23 08:23:44;;;;;;;13.18;7.50;;;12.40;89.70;;;;;;5051481;28;20094;-27
2023/10/23 08:26:10;;;;;;;12.93;7.38;;;12.40;89.70;;;;;;5054539;28;20100;-30
2023/10/23 08:28:36;;;;;;;20.38;7.57;;;12.40;89.70;;;;;;5054929;28;20525;-28
2023/10/23 08:31:01;;;;;;;21.38;7.40;;;12.40;89.60;;;;;;5055367;28;20033;-29
2023/10/23 08:33:27;;;;;;;14.30;6.57;;;12.40;89.50;;;;;;5055192;28;20025;-27
2023/10/23 08:35:53;;;;;;;23.25;6.82;;;12.40;89.60;;;;;;5053633;28;20040;-30
2023/10/23 08:38:18;;;;;;;12.07;6.72;;;12.40;89.60;;;;;;5055134;28;20381;-28
2023/10/23 08:40:44;;;;;;;7.68;5.63;;;12.40;89.50;;;;;;5054666;28;20032;-29
2023/10/23 08:43:10;;;;;;;10.80;6.30;;;12.40;89.50;;;;;;5054849;28;20017;-30
2023/10/23 08:45:36;;;;;;;7.40;5.10;;;12.40;89.50;;;;;;5055052;28;20108;-27
2023/10/23 08:48:01;;;;;;;12.10;6.07;;;12.50;89.50;;;;;;5054763;28;20021;-28
2023/10/23 08:50:28;;;;;;;8.23;5.20;;;12.50;89.40;;;;;;5054506;28;20060;-29
2023/10/23 08:52:59;;;;;;;10.57;6.88;;;12.50;89.30;;;;;;5054692;28;20025;-29
2023/10/23 08:55:27;;;;;;;15.65;7.00;;;12.50;89.20;;;;;;5054544;28;20024;-27
2023/10/23 08:57:54;;;;;;;15.93;7.55;;;12.40;89.20;;;;;;5054979;28;20025;-27
2023/10/23 09:00:23;;;;;;;15.02;7.60;;;12.40;89.30;;;;;;5054689;28;20021;-30
2023/10/23 09:02:51;;;;;;;15.45;6.85;;;12.50;89.30;;;;;;5054687;28;20021;-28
2023/10/23 09:05:18;;;;;;;10.55;6.55;;;12.50;89.30;;;;;;5054498;28;20389;-29
2023/10/23 09:07:45;;;;;;;8.45;6.10;;;12.50;89.20;;;;;;5054824;28;20100;-29
2023/10/23 09:10:11;;;;;;;8.35;5.55;;;12.60;89.20;;;;;;5054278;28;20507;-28
2023/10/23 09:12:39;;;;;;;8.30;5.70;;;12.60;89.70;;;;;;5054282;28;20108;-32
2023/10/23 09:15:24;;;;;;;7.28;5.55;;;12.70;89.10;;;;;;5054644;28;20389;-34
2023/10/23 09:17:51;;;;;;;8.40;6.43;;;12.70;89.00;;;;;;5054264;28;20033;-29
2023/10/23 09:20:18;;;;;;;8.88;6.57;;;12.70;88.80;;;;;;5054022;28;20108;-31
2023/10/23 09:22:50;;;;;;;10.38;7.22;;;12.70;88.80;;;;;;5054095;28;20109;-28
2023/10/23 09:25:25;;;;;;;12.32;6.90;;;12.70;88.80;;;;;;5054292;28;20131;-31
2023/10/23 09:27:51;;;;;;;10.00;6.80;;;12.70;88.80;;;;;;5054367;28;20078;-32
2023/10/23 09:30:21;;;;;;;15.10;7.72;;;12.80;88.80;;;;;;5053686;28;20102;-31
2023/10/23 09:32:55;;;;;;;12.00;7.68;;;12.80;88.80;;;;;;5054343;28;20025;-33
2023/10/23 09:35:24;;;;;;;;;;;12.90;88.80;;;;;;5054371;28;20025;-27
2023/10/23 09:37:49;;;;;;;10.43;7.55;;;12.90;88.70;;;;;;5053100;28;19963;-28
2023/10/23 09:40:17;;;;;;;13.15;7.55;;;12.90;88.70;;;;;;5053586;28;20416;-34
2023/10/23 09:42:43;;;;;;;10.43;7.72;;;12.90;88.60;;;;;;5053746;28;20040;-30
2023/10/23 09:45:09;;;;;;;11.38;7.80;;;13.00;88.60;;;;;;5053693;28;20100;-30
2023/10/23 09:47:35;;;;;;;13.82;8.63;;;13.10;88.40;;;;;;5053595;28;20382;-28
2023/10/23 09:50:03;;;;;;;11.82;8.35;;;13.20;88.30;;;;;;5053937;28;20017;-32
2023/10/23 09:52:32;;;;;;;11.98;8.63;;;13.30;88.30;;;;;;5053529;28;20033;-28
2023/10/23 09:55:07;;;;;;;14.05;8.57;;;13.30;88.00;;;;;;5053447;28;20033;-28
2023/10/23 09:57:40;;;;;;;9.13;7.50;;;13.40;88.10;;;;;;5054082;28;20414;-28
2023/10/23 10:00:13;;;;;;;11.30;8.25;;;13.40;88.00;;;;;;5053659;28;20470;-28
2023/10/23 10:02:40;;;;;;;10.38;7.80;;;13.40;87.90;;;;;;5053524;28;20099;-30
2023/10/23 10:05:08;;;;;;;11.68;7.75;;;13.50;87.80;;;;;;5053657;28;20412;-39
2023/10/23 10:07:58;;;;;;;12.00;7.75;;;13.60;87.80;;;;;;5053753;28;20680;-27
2023/10/23 10:10:26;;;;;;;7.80;6.18;;;13.70;87.70;;;;;;5053124;28;20583;-36
2023/10/23 10:12:54;;;;;;;13.00;6.90;;;13.70;87.50;;;;;;5053532;28;20512;-29
2023/10/23 10:15:21;;;;;;;10.55;6.80;;;13.80;87.50;;;;;;5053104;28;20025;-28
2023/10/23 10:17:49;;;;;;;9.25;6.47;;;13.80;87.40;;;;;;5052783;28;20033;-27
2023/10/23 10:20:16;;;;;;;13.05;6.55;;;13.90;87.20;;;;;;5052987;28;20017;-33
2023/10/23 10:22:43;;;;;;;8.70;6.80;;;13.90;87.10;;;;;;5053059;28;20021;-33
2023/10/23 10:25:11;;;;;;;9.93;6.60;;;14.00;87.00;;;;;;5052928;28;20044;-27
2023/10/23 10:27:37;;;;;;;9.73;7.00;;;14.10;87.00;;;;;;5052810;28;20029;-28
2023/10/23 10:30:05;;;;;;;11.70;6.97;;;14.10;86.80;;;;;;5052616;28;20056;-29
2023/10/23 10:32:34;;;;;;;7.85;6.13;;;14.20;86.80;;;;;;5051474;28;20090;-28
2023/10/23 10:35:03;;;;;;;8.80;5.93;;;14.20;86.60;;;;;;5052779;28;20025;-27
2023/10/23 10:37:30;;;;;;;8.40;5.70;;;14.20;86.40;;;;;;5052909;28;20024;-27
2023/10/23 10:39:56;;;;;;;8.27;6.18;;;14.30;86.40;;;;;;5052445;28;20025;-29
2023/10/23 10:42:23;;;;;;;8.45;5.93;;;14.30;86.40;;;;;;5052481;28;20029;-36
2023/10/23 10:44:52;;;;;;;8.63;5.57;;;14.40;86.30;;;;;;5052889;28;20496;-27
2023/10/23 10:47:19;;;;;;;8.57;5.68;;;14.40;86.20;;;;;;5051961;28;20024;-28
2023/10/23 10:49:50;;;;;;;8.63;5.80;;;14.50;86.10;;;;;;5052657;28;20462;-27
2023/10/23 10:52:30;;;;;;;19.60;7.00;;;14.50;86.00;;;;;;5052360;28;20024;-27
2023/10/23 10:55:03;;;;;;;9.43;6.20;;;14.60;85.90;;;;;;5052755;28;20469;-27
2023/10/23 10:57:30;;;;;;;10.85;6.20;;;14.70;85.90;;;;;;5052385;28;20571;-31
2023/10/23 10:59:59;;;;;;;9.65;6.28;;;14.70;85.70;;;;;;5052509;28;20040;-37
2023/10/23 11:02:25;;;;;;;10.55;6.20;;;14.70;85.50;;;;;;5051293;28;20074;-28
2023/10/23 11:04:51;;;;;;;10.82;6.35;;;14.80;85.60;;;;;;5052558;28;20029;-30
2023/10/23 11:07:26;;;;;;;8.35;6.25;;;14.80;85.40;;;;;;5052177;28;20401;-30
2023/10/23 11:09:53;;;;;;;10.45;7.22;;;14.80;85.40;;;;;;5052066;28;20496;-30
2023/10/23 11:12:20;;;;;;;9.05;6.07;;;14.90;85.40;;;;;;5052292;28;20036;-28
2023/10/23 11:14:47;;;;;;;8.05;6.68;;;14.80;85.20;;;;;;5050823;28;20064;-31
2023/10/23 11:17:13;;;;;;;10.32;7.30;;;14.90;85.30;;;;;;5052300;28;20044;-28
2023/10/23 11:19:41;;;;;;;10.82;7.00;;;14.90;85.20;;;;;;5051757;28;20461;-28
2023/10/23 11:22:12;;;;;;;11.52;7.70;;;14.90;85.10;;;;;;5052078;28;20112;-29
2023/10/23 11:24:39;;;;;;;15.13;8.57;;;15.00;85.10;;;;;;5051806;28;20021;-34
2023/10/23 11:27:05;;;;;;;13.68;8.70;;;15.00;85.00;;;;;;5051854;28;20021;-30
2023/10/23 11:29:47;;;;;;;12.70;9.05;;;15.00;84.90;;;;;;5051595;28;20040;-28
2023/10/23 11:32:17;;;;;;;12.25;8.25;;;15.10;84.80;;;;;;5051727;28;20060;-29
2023/10/23 11:34:43;;;;;;;13.10;8.48;;;15.10;84.80;;;;;;5051752;28;20025;-28
2023/10/23 11:37:10;;;;;;;14.32;8.70;;;15.20;84.70;;;;;;5050331;28;20033;-29
2023/10/23 11:39:38;;;;;;;14.77;9.27;;;15.20;84.50;;;;;;5051505;28;20021;-30
2023/10/23 11:42:04;;;;;;;14.82;9.40;;;15.30;84.50;;;;;;5051722;28;20491;-29
2023/10/23 11:44:31;;;;;;;13.32;9.30;;;15.30;85.00;;;;;;5051597;28;20527;-28
2023/10/23 11:46:58;;;;;;;16.90;9.13;;;15.40;84.40;;;;;;5051443;28;20021;-38
2023/10/23 11:49:24;;;;;;;18.58;9.00;;;15.40;84.30;;;;;;5051548;28;20028;-28
2023/10/23 11:52:00;;;;;;;12.77;8.60;;;15.40;84.00;;;;;;5051654;28;20029;-31
2023/10/23 11:54:27;;;;;;;14.30;8.07;;;15.40;84.10;;;;;;5050202;28;20040;-33
2023/10/23 11:56:55;;;;;;;12.68;7.90;;;15.40;84.20;;;;;;5051561;28;20029;-29
2023/10/23 11:59:22;;;;;;;11.13;7.18;;;15.40;84.10;;;;;;5053192;28;20556;-29
2023/10/23 12:01:49;;;;;;;12.57;6.50;;;15.40;84.10;;;;;;5057839;28;20024;-29
2023/10/23 12:04:15;;;;;;;9.43;6.40;;;15.40;83.80;;;;;;5058414;28;20044;-29
2023/10/23 12:06:42;;;;;;;8.93;5.45;;;15.40;84.00;;;;;;5058429;28;20392;-27
2023/10/23 12:09:10;;;;;;;8.27;4.80;;;15.40;84.00;;;;;;5058284;28;20090;-33
2023/10/23 12:11:36;;;;;;;7.68;4.03;;;15.40;83.90;;;;;;5058151;28;20025;-38
2023/10/23 12:14:03;;;;;;;8.38;4.28;;;15.40;83.80;;;;;;5057946;28;20094;-28
2023/10/23 12:16:30;;;;;;;6.78;3.97;;;15.40;83.60;;;;;;5058250;28;20481;-28
2023/10/23 12:18:56;;;;;;;8.00;3.53;;;15.50;83.70;;;;;;5057797;28;20104;-28
2023/10/23 12:21:22;;;;;;;8.63;3.70;;;15.50;83.60;;;;;;5057763;28;20107;-29
2023/10/23 12:23:47;;;;;;;8.15;3.63;;;15.50;83.50;;;;;;5058074;28;20013;-29
2023/10/23 12:26:13;;;;;;;7.25;3.38;;;15.60;83.50;;;;;;5057888;28;20013;-30
2023/10/23 12:28:39;;;;;;;6.68;3.40;;;15.60;83.30;;;;;;5057976;28;20078;-29
2023/10/23 12:31:05;;;;;;;7.30;3.30;;;15.60;83.20;;;;;;5057870;28;20123;-28
2023/10/23 12:33:31;;;;;;;9.00;3.25;;;15.60;83.20;;;;;;5058211;28;20029;-29
2023/10/23 12:36:00;;;;;;;7.50;3.55;;;15.60;83.10;;;;;;5058132;28;20104;-32
2023/10/23 12:38:35;;;;;;;6.03;3.33;;;15.70;83.00;;;;;;5057883;28;20025;-30
2023/10/23 12:41:00;;;;;;;8.15;3.13;;;15.70;82.90;;;;;;5057774;28;20025;-28